createdAt,value
2023-04-16T00:01:59.225Z,11.73
2023-04-16T00:17:00.921Z,13.17
2023-04-16T00:32:02.575Z,13.17
2023-04-16T00:47:04.700Z,12.73
2023-04-16T01:02:09.212Z,12.27
2023-04-16T01:17:11.226Z,10.70
2023-04-16T01:32:12.907Z,9.90
2023-04-16T01:47:14.760Z,10.20
2023-04-16T02:02:16.644Z,9.80
2023-04-16T02:17:18.480Z,9.53
2023-04-16T02:32:20.829Z,9.83
2023-04-16T03:02:24.300Z,8.70
2023-04-16T03:17:26.083Z,9.47
2023-04-16T03:32:27.950Z,9.90
2023-04-16T03:47:29.790Z,9.03
2023-04-16T04:02:31.725Z,11.20
2023-04-16T04:17:33.446Z,9.10
2023-04-16T04:32:35.177Z,10.33
2023-04-16T04:47:36.889Z,9.87
2023-04-16T05:02:38.802Z,10.37
2023-04-16T05:32:42.382Z,9.63
2023-04-16T05:47:44.367Z,10.77
2023-04-16T06:02:46.257Z,10.43
2023-04-16T06:17:48.023Z,9.87
2023-04-16T06:32:49.970Z,11.83
2023-04-16T06:47:52.458Z,12.17
2023-04-16T07:02:57.002Z,12.90
2023-04-16T07:18:00.029Z,12.13
2023-04-16T07:33:05.945Z,12.20
2023-04-16T07:48:07.730Z,13.47
2023-04-16T08:03:09.681Z,13.43
2023-04-16T08:18:15.600Z,15.30
2023-04-16T08:33:17.262Z,14.73
2023-04-16T08:48:21.437Z,16.90
2023-04-16T09:03:23.366Z,15.17
2023-04-16T09:18:25.828Z,19.47
2023-04-16T09:33:27.540Z,15.47
2023-04-16T09:48:33.709Z,16.23
2023-04-16T10:03:37.074Z,19.67
2023-04-16T10:18:41.037Z,18.43
2023-04-16T10:33:44.305Z,18.37
2023-04-16T10:48:50.195Z,18.70
2023-04-16T11:03:52.572Z,21.97
2023-04-16T11:18:56.345Z,20.07
2023-04-16T11:33:59.507Z,21.03
2023-04-16T11:49:01.191Z,21.67
2023-04-16T12:04:03.653Z,20.90
2023-04-16T12:19:06.049Z,22.83
2023-04-16T12:34:07.923Z,23.60
2023-04-16T12:49:11.309Z,23.13
2023-04-16T13:04:13.304Z,22.80
2023-04-16T13:19:16.028Z,21.50
2023-04-16T13:34:17.804Z,18.87
2023-04-16T13:49:19.550Z,16.83
2023-04-16T14:04:22.542Z,11.33
2023-04-16T14:19:24.329Z,13.30
2023-04-16T14:34:26.125Z,15.70
2023-04-16T14:49:27.782Z,16.43
2023-04-16T15:04:30.151Z,16.03
2023-04-16T15:19:31.948Z,16.70
2023-04-16T15:34:33.576Z,13.70
2023-04-16T15:49:35.580Z,14.53
2023-04-16T16:04:37.380Z,15.03
2023-04-16T16:19:39.179Z,13.80
2023-04-16T16:34:42.025Z,13.40
2023-04-16T16:49:44.611Z,13.30
2023-04-16T17:04:46.356Z,12.67
2023-04-16T17:19:47.986Z,12.90
2023-04-16T17:34:49.660Z,12.97
2023-04-16T17:49:57.177Z,12.60
2023-04-16T18:04:58.941Z,11.43
2023-04-16T18:20:00.826Z,11.63
2023-04-16T18:35:02.539Z,11.13
2023-04-16T18:50:04.577Z,9.23
2023-04-16T19:05:06.745Z,11.90
2023-04-16T19:20:11.516Z,10.40
2023-04-16T19:35:14.553Z,9.63
2023-04-16T19:50:16.294Z,10.40
2023-04-16T20:05:17.979Z,10.13
2023-04-16T20:20:19.708Z,12.03
2023-04-16T20:35:21.344Z,11.57
2023-04-16T21:05:26.595Z,10.23
2023-04-16T21:20:30.360Z,11.33
2023-04-16T21:35:33.235Z,11.37
2023-04-16T21:50:34.920Z,10.57
2023-04-16T22:05:36.520Z,11.60
2023-04-16T22:20:39.785Z,10.33
2023-04-16T22:35:41.431Z,10.40
2023-04-16T22:50:48.678Z,8.40
2023-04-16T23:05:50.412Z,11.37
2023-04-16T23:20:53.175Z,9.70
2023-04-16T23:35:54.851Z,10.47
2023-04-16T23:50:56.537Z,11.50
